Aérodrome :
LOGIN :

S'inscrire | Disclaimer

   EN    FR    IT 

 










Légende :    VFR   VFR Marginal   IFR   IFR Intensif   IFR Très Intensif
Visi : 
Plafond : 
>= 8 km
>= 3000ft
5 à 8 km
1000 à 3000 ft
1500m à 5 km
500 à 1000 ft
800 à 1500m
200 à 500 ft
< 800m
< 200 ft
Symboles :   Orages  Brouillard  Fortes neiges  Fortes précipitations  Vent > 20 kt
SIGMETs :   Divers  Orages  Givrage  Turbulence  Onde Orograph.  Cendres Volcan.






- Altitude de l'aérodrome : 302 ft


LFPM - Melun Villaroche

DERNIER METAR :
  • 220700Z AUTO 11006KT 9999 -RA FEW014/// SCT054/// OVC072/// ///TCU 03/02 Q0993

METARs EXPIRÉS :
  • 220630Z AUTO 05003KT 010V100 9999 -SNRA FEW012/// BKN026/// BKN035/// ///TCU 03/02 Q0993
  • 220600Z AUTO 02004KT 340V060 9000 -SNRA SCT012/// OVC027/// ///CB 03/03 Q0993
  • 220530Z AUTO 01006KT 7000 -SNRA BKN013/// OVC023/// ///CB 04/02 Q0992
  • 220500Z AUTO 02006KT 8000 -SNRA BKN012/// OVC026/// ///CB 04/03 Q0992
  • 220430Z AUTO 36009KT 6000 -SNRA BKN014/// BKN021/// OVC027/// ///CB 05/03 Q0992

Prévision TAF périmée.
ATIS : +33 1 64 14 28 44



MET'MAP, la Météo Aéronautique d'un coup d'oeil ! - Copyright ORBIFLY Décembre 2007 - Disclaimer

ORBIFLY MET'MAP TEAM :

Programmation & Développement : Alexandra Zaïnal
Sur une idée originale de : Baudouin d'Aumeries
Assistance à la programmation : Marc-Olivier Méhu
Soutien technique & logistique : Manuel Goepfert

Contact : metmap@orbifly.com




SOURCES & CREDITS :

   NOAA